createdAt,value
2023-03-22T00:01:45.504Z,59.59
2023-03-22T00:07:49.654Z,59.85
2023-03-22T00:13:51.852Z,60.89
2023-03-22T00:19:54.031Z,60.61
2023-03-22T00:25:56.494Z,61.24
2023-03-22T00:31:57.964Z,62.02
2023-03-22T00:38:13.404Z,61.74
2023-03-22T00:44:14.951Z,62.13
2023-03-22T00:50:19.637Z,61.05
2023-03-22T00:56:24.819Z,61.31
2023-03-22T01:02:34.347Z,60.78
2023-03-22T01:08:38.239Z,61.17
2023-03-22T01:14:40.161Z,60.55
2023-03-22T01:20:42.053Z,60.67
2023-03-22T01:26:46.180Z,61.38
2023-03-22T01:32:47.836Z,62.47
2023-03-22T01:38:49.888Z,61.52
2023-03-22T01:45:26.789Z,60.57
2023-03-22T01:51:28.474Z,61.90
2023-03-22T01:57:53.924Z,61.34
2023-03-22T02:04:33.298Z,60.19
2023-03-22T02:10:36.374Z,59.38
2023-03-22T02:16:50.724Z,58.86
2023-03-22T02:23:05.215Z,59.02
2023-03-22T02:29:34.871Z,59.30
2023-03-22T02:35:53.467Z,61.01
2023-03-22T02:42:14.122Z,61.41
2023-03-22T02:48:18.448Z,62.22
2023-03-22T02:54:45.302Z,61.75
2023-03-22T03:00:50.341Z,59.48
2023-03-22T03:06:58.330Z,59.32
2023-03-22T03:13:00.240Z,60.29
2023-03-22T03:19:15.777Z,59.84
2023-03-22T03:26:04.287Z,59.92
2023-03-22T03:32:19.340Z,59.83
2023-03-22T03:38:25.715Z,59.12
2023-03-22T03:44:32.533Z,59.11
2023-03-22T03:50:43.231Z,58.31
2023-03-22T03:56:47.075Z,59.43
2023-03-22T04:02:48.936Z,60.73
2023-03-22T04:09:12.946Z,62.90
2023-03-22T04:15:17.598Z,63.76
2023-03-22T04:21:22.234Z,63.42
2023-03-22T04:27:35.195Z,64.82
2023-03-22T04:33:46.202Z,63.47
2023-03-22T04:39:59.856Z,63.36
2023-03-22T04:46:12.122Z,65.11
2023-03-22T04:52:18.444Z,65.05
2023-03-22T04:58:27.115Z,65.39
2023-03-22T05:04:28.685Z,64.84
2023-03-22T05:10:39.727Z,64.44
2023-03-22T05:16:41.565Z,64.14
2023-03-22T05:22:44.809Z,63.92
2023-03-22T05:28:46.844Z,64.12
2023-03-22T05:34:55.489Z,64.20
2023-03-22T05:41:02.951Z,63.71
2023-03-22T05:47:06.217Z,63.26
2023-03-22T05:53:11.188Z,62.88
2023-03-22T05:59:34.146Z,61.36
2023-03-22T06:05:36.780Z,60.53
2023-03-22T06:11:38.541Z,59.32
2023-03-22T06:17:41.693Z,58.83
2023-03-22T06:23:44.535Z,57.85
2023-03-22T06:29:50.073Z,58.06
2023-03-22T06:35:53.506Z,57.39
2023-03-22T06:42:02.761Z,57.90
2023-03-22T06:48:04.885Z,58.29
2023-03-22T06:54:12.661Z,58.58
2023-03-22T07:00:15.292Z,59.34
2023-03-22T07:06:16.875Z,59.24
2023-03-22T07:12:21.808Z,58.15
2023-03-22T07:18:24.806Z,57.95
2023-03-22T07:24:26.356Z,57.58
2023-03-22T07:30:28.366Z,56.94
2023-03-22T07:36:31.028Z,57.19
2023-03-22T07:42:33.939Z,57.41
2023-03-22T07:48:57.902Z,57.06
2023-03-22T07:55:18.168Z,56.48
2023-03-22T08:01:20.864Z,55.50
2023-03-22T08:07:36.923Z,54.54
2023-03-22T08:13:38.859Z,53.50
2023-03-22T08:19:43.125Z,53.05
2023-03-22T08:25:46.315Z,52.24
2023-03-22T08:31:48.303Z,51.53
2023-03-22T08:37:53.996Z,51.05
2023-03-22T08:43:56.858Z,50.77
2023-03-22T08:49:58.385Z,50.17
2023-03-22T08:56:09.383Z,50.41
2023-03-22T09:02:26.289Z,49.82
2023-03-22T09:08:29.270Z,48.45
2023-03-22T09:14:38.220Z,49.42
2023-03-22T09:20:40.673Z,49.81
2023-03-22T09:26:43.057Z,50.50
2023-03-22T09:32:44.731Z,51.46
2023-03-22T09:38:49.330Z,50.53
2023-03-22T09:44:52.030Z,49.58
2023-03-22T09:50:57.223Z,49.31
2023-03-22T09:57:02.353Z,48.76
2023-03-22T10:03:28.523Z,48.46
2023-03-22T10:09:48.667Z,48.01
2023-03-22T10:15:55.158Z,47.15
2023-03-22T10:21:57.493Z,46.62
2023-03-22T10:27:59.054Z,46.79
2023-03-22T10:34:05.537Z,46.45
2023-03-22T10:40:35.045Z,45.71
2023-03-22T10:46:38.869Z,45.65
2023-03-22T10:52:47.268Z,45.41
2023-03-22T10:58:49.986Z,43.87
2023-03-22T11:04:53.877Z,44.09
2023-03-22T11:10:59.645Z,43.68
2023-03-22T11:17:14.701Z,43.59
2023-03-22T11:23:17.327Z,42.99
2023-03-22T11:29:18.855Z,41.85
2023-03-22T11:41:48.430Z,40.24
2023-03-22T11:47:50.603Z,39.89
2023-03-22T11:53:56.509Z,39.81
2023-03-22T12:00:19.309Z,39.35
2023-03-22T12:06:27.481Z,39.38
2023-03-22T12:12:36.427Z,39.24
2023-03-22T12:18:44.311Z,39.79
2023-03-22T12:24:46.007Z,40.05
2023-03-22T12:30:50.850Z,40.49
2023-03-22T12:36:55.766Z,41.03
2023-03-22T12:43:20.765Z,41.18
2023-03-22T12:49:28.607Z,41.36
2023-03-22T12:55:33.199Z,41.57
2023-03-22T13:02:01.906Z,41.53
2023-03-22T13:08:04.961Z,41.41
2023-03-22T13:14:06.723Z,41.51
2023-03-22T13:20:11.548Z,41.43
2023-03-22T13:26:14.660Z,41.67
2023-03-22T13:32:53.335Z,41.67
2023-03-22T13:39:04.598Z,41.06
2023-03-22T13:45:32.693Z,40.90
2023-03-22T13:51:34.808Z,41.21
2023-03-22T13:57:58.274Z,40.52
2023-03-22T14:04:03.360Z,40.44
2023-03-22T14:10:44.624Z,40.45
2023-03-22T14:16:48.909Z,40.31
